createdAt,value
2023-05-13T00:01:12.192Z,4.50
2023-05-13T00:03:40.059Z,4.20
2023-05-13T00:06:09.981Z,4.37
2023-05-13T00:08:37.106Z,4.13
2023-05-13T00:11:04.209Z,4.00
2023-05-13T00:13:32.045Z,4.30
2023-05-13T00:15:58.951Z,4.50
2023-05-13T00:18:26.160Z,5.47
2023-05-13T00:20:53.095Z,4.83
2023-05-13T00:23:20.013Z,4.23
2023-05-13T00:25:46.964Z,4.80
2023-05-13T00:28:15.082Z,4.83
2023-05-13T00:30:45.887Z,4.13
2023-05-13T00:33:13.099Z,3.70
2023-05-13T00:35:40.060Z,3.90
2023-05-13T00:38:07.755Z,4.00
2023-05-13T00:40:39.517Z,4.63
2023-05-13T00:43:06.760Z,4.60
2023-05-13T00:45:33.810Z,4.47
2023-05-13T00:48:01.363Z,4.60
2023-05-13T00:50:28.393Z,4.90
2023-05-13T00:52:57.769Z,4.53
2023-05-13T00:55:24.773Z,4.90
2023-05-13T00:57:51.679Z,4.47
2023-05-13T01:00:19.327Z,5.27
2023-05-13T01:03:05.324Z,5.17
2023-05-13T01:05:51.211Z,4.67
2023-05-13T01:08:42.951Z,4.43
2023-05-13T01:11:29.341Z,4.40
2023-05-13T01:14:11.195Z,4.67
2023-05-13T01:16:54.465Z,4.63
2023-05-13T01:19:30.008Z,4.43
2023-05-13T01:21:56.871Z,5.30
2023-05-13T01:24:23.875Z,3.77
2023-05-13T01:26:51.240Z,4.80
2023-05-13T01:29:18.262Z,4.70
2023-05-13T01:31:46.969Z,4.40
2023-05-13T01:34:16.075Z,5.07
2023-05-13T01:36:44.036Z,5.03
2023-05-13T01:39:12.157Z,4.70
2023-05-13T01:41:39.107Z,4.53
2023-05-13T01:44:06.610Z,4.80
2023-05-13T01:46:33.692Z,3.93
2023-05-13T01:49:00.713Z,4.07
2023-05-13T01:51:28.840Z,5.00
2023-05-13T01:53:55.776Z,4.70
2023-05-13T01:56:22.629Z,4.97
2023-05-13T01:58:49.614Z,4.70
2023-05-13T02:01:16.676Z,5.00
2023-05-13T02:03:43.749Z,5.07
2023-05-13T02:06:10.635Z,5.60
2023-05-13T02:08:37.654Z,4.67
2023-05-13T02:11:04.603Z,4.30
2023-05-13T02:13:31.636Z,4.60
2023-05-13T02:15:58.703Z,5.50
2023-05-13T02:18:25.771Z,4.87
2023-05-13T02:20:52.658Z,5.00
2023-05-13T02:23:19.541Z,5.67
2023-05-13T02:25:46.446Z,5.00
2023-05-13T02:28:13.374Z,5.30
2023-05-13T02:30:40.339Z,4.50
2023-05-13T02:33:07.628Z,4.57
2023-05-13T02:35:34.576Z,5.03
2023-05-13T02:38:03.942Z,5.77
2023-05-13T02:40:30.940Z,4.73
2023-05-13T02:42:57.811Z,5.20
2023-05-13T02:45:24.679Z,4.60
2023-05-13T02:47:52.009Z,4.20
2023-05-13T02:50:19.503Z,5.13
2023-05-13T02:52:46.493Z,5.10
2023-05-13T02:55:13.521Z,4.63
2023-05-13T02:57:40.449Z,4.50
2023-05-13T03:00:08.675Z,4.80
2023-05-13T03:02:36.346Z,5.37
2023-05-13T03:05:03.819Z,4.33
2023-05-13T03:07:51.269Z,4.50
2023-05-13T03:10:54.622Z,4.70
2023-05-13T03:13:36.290Z,4.70
2023-05-13T03:16:38.346Z,5.17
2023-05-13T03:19:54.240Z,5.53
2023-05-13T03:22:45.989Z,5.00
2023-05-13T03:28:31.222Z,5.03
2023-05-13T03:31:42.807Z,5.17
2023-05-13T03:34:29.456Z,4.93
2023-05-13T03:37:05.897Z,5.10
2023-05-13T03:39:39.667Z,4.97
2023-05-13T03:42:45.984Z,5.20
2023-05-13T03:45:52.036Z,5.10
2023-05-13T03:55:00.536Z,5.00
2023-05-13T03:59:26.176Z,5.17
2023-05-13T04:01:43.900Z,4.20
2023-05-13T04:08:47.316Z,4.80
2023-05-13T04:11:48.395Z,5.60
2023-05-13T04:14:38.279Z,5.10
2023-05-13T04:17:49.077Z,4.53
2023-05-13T04:21:06.275Z,5.10
2023-05-13T04:24:03.198Z,5.03
2023-05-13T04:30:51.269Z,4.60
2023-05-13T04:33:59.433Z,5.77
2023-05-13T04:37:23.683Z,4.30
2023-05-13T04:43:51.412Z,4.90
2023-05-13T05:02:39.810Z,5.40
2023-05-13T05:06:30.866Z,4.30
2023-05-13T05:17:57.191Z,4.30
2023-05-13T05:20:57.116Z,4.17
2023-05-13T05:27:35.922Z,3.53
2023-05-13T05:30:49.790Z,4.00
2023-05-13T05:34:10.934Z,3.87
2023-05-13T05:40:17.975Z,5.17
2023-05-13T05:43:14.847Z,4.10
2023-05-13T05:45:55.816Z,3.93
2023-05-13T05:48:46.771Z,3.90
2023-05-13T05:58:47.795Z,3.53
2023-05-13T06:01:33.852Z,3.70
2023-05-13T06:04:45.643Z,3.83
2023-05-13T06:07:41.127Z,3.67
2023-05-13T06:10:33.887Z,3.97
2023-05-13T06:13:09.544Z,2.90
2023-05-13T06:22:16.375Z,3.10
2023-05-13T06:24:53.131Z,3.47
2023-05-13T06:28:08.326Z,3.63
2023-05-13T06:31:24.351Z,2.90
2023-05-13T06:34:20.355Z,3.30
2023-05-13T06:37:25.488Z,3.43
2023-05-13T06:39:56.680Z,3.60
2023-05-13T06:45:44.870Z,3.30
2023-05-13T06:48:24.113Z,3.20
2023-05-13T06:54:05.934Z,2.67
2023-05-13T06:56:51.586Z,3.10
2023-05-13T06:59:53.336Z,2.90
2023-05-13T07:02:32.588Z,3.07
2023-05-13T07:05:44.774Z,2.30
2023-05-13T07:08:53.941Z,2.60
2023-05-13T07:11:34.159Z,2.60
2023-05-13T07:14:29.570Z,3.30
2023-05-13T07:17:03.041Z,2.57
2023-05-13T07:27:35.849Z,2.43
2023-05-13T07:30:14.705Z,2.10
2023-05-13T07:32:53.232Z,2.67
2023-05-13T07:38:36.944Z,1.90
2023-05-13T07:41:26.308Z,2.13
2023-05-13T07:44:20.142Z,2.03
2023-05-13T07:47:23.984Z,2.50
2023-05-13T07:50:09.284Z,2.07
2023-05-13T07:56:58.103Z,2.33
2023-05-13T07:59:44.789Z,2.30
2023-05-13T08:03:18.519Z,1.90
2023-05-13T08:06:07.530Z,2.17
2023-05-13T08:09:46.296Z,2.53
2023-05-13T08:12:48.147Z,3.10
2023-05-13T08:15:28.567Z,2.30
2023-05-13T08:18:16.834Z,2.63
2023-05-13T08:20:43.988Z,2.30
2023-05-13T08:23:10.902Z,2.23
2023-05-13T08:25:37.791Z,2.10
2023-05-13T08:28:04.823Z,2.60
2023-05-13T08:30:32.314Z,2.63
2023-05-13T08:32:59.266Z,3.00
2023-05-13T08:35:26.158Z,1.83
2023-05-13T08:37:53.066Z,2.70
2023-05-13T08:40:21.187Z,2.37
2023-05-13T08:42:50.985Z,2.20
2023-05-13T08:45:22.342Z,1.90
2023-05-13T08:47:58.751Z,2.90
2023-05-13T08:50:26.387Z,2.57
2023-05-13T08:52:54.149Z,2.60
2023-05-13T08:55:22.666Z,2.60
2023-05-13T08:57:50.686Z,2.57
2023-05-13T09:00:19.365Z,2.67
2023-05-13T09:02:47.750Z,2.97
2023-05-13T09:05:15.572Z,2.20
2023-05-13T09:07:42.549Z,2.13
2023-05-13T09:10:11.033Z,2.30
2023-05-13T09:12:47.085Z,2.57
2023-05-13T09:15:17.595Z,2.50
2023-05-13T09:17:50.154Z,2.53
2023-05-13T09:20:19.483Z,2.83
2023-05-13T09:22:57.816Z,2.03
2023-05-13T09:25:25.898Z,2.07
2023-05-13T09:27:59.132Z,2.37
2023-05-13T09:30:35.607Z,2.00
2023-05-13T09:33:16.758Z,2.80
2023-05-13T09:35:49.286Z,2.27
2023-05-13T09:38:29.109Z,2.33
2023-05-13T09:40:59.361Z,1.87
2023-05-13T09:43:32.081Z,1.83
2023-05-13T09:46:04.589Z,2.47
2023-05-13T09:48:35.130Z,1.60
2023-05-13T09:51:02.211Z,2.63
2023-05-13T09:53:29.274Z,1.87
2023-05-13T09:55:59.980Z,2.40
2023-05-13T09:58:29.164Z,2.00
2023-05-13T10:00:56.738Z,2.77
2023-05-13T10:03:24.107Z,1.70
2023-05-13T10:05:52.534Z,1.80
2023-05-13T10:08:19.848Z,2.13
2023-05-13T10:10:50.585Z,2.13
2023-05-13T10:13:21.084Z,2.17
2023-05-13T10:15:53.860Z,1.50
2023-05-13T10:18:22.654Z,2.00
2023-05-13T10:20:53.605Z,1.73
2023-05-13T10:23:23.936Z,1.73
2023-05-13T10:25:55.353Z,1.60
2023-05-13T10:28:22.476Z,2.00
2023-05-13T10:30:51.555Z,1.90
2023-05-13T10:33:18.908Z,7.23
2023-05-13T10:36:09.167Z,1.93
2023-05-13T10:39:09.564Z,1.90
2023-05-13T10:42:17.534Z,1.93
2023-05-13T10:44:44.509Z,2.30
2023-05-13T10:47:11.558Z,2.60
2023-05-13T10:49:39.601Z,2.43
2023-05-13T10:52:14.050Z,2.30
2023-05-13T10:54:42.215Z,2.30
2023-05-13T10:57:09.945Z,2.20
2023-05-13T10:59:38.677Z,2.50
2023-05-13T11:02:32.406Z,3.03
2023-05-13T11:05:00.868Z,2.43
2023-05-13T11:07:30.809Z,2.13
2023-05-13T11:09:59.623Z,2.10
2023-05-13T11:12:26.533Z,2.60
2023-05-13T11:14:56.697Z,2.23
2023-05-13T11:17:23.653Z,2.10
2023-05-13T11:19:51.948Z,2.70
2023-05-13T11:22:24.030Z,2.20
2023-05-13T11:25:09.261Z,2.00
2023-05-13T11:27:41.419Z,2.13
2023-05-13T11:30:28.793Z,2.47
2023-05-13T11:32:58.481Z,1.80
2023-05-13T11:35:31.674Z,2.70
2023-05-13T11:38:01.352Z,2.03
2023-05-13T11:40:30.955Z,2.63
2023-05-13T11:42:59.474Z,2.07
2023-05-13T11:45:28.449Z,2.10
2023-05-13T11:47:56.395Z,2.40
2023-05-13T11:50:26.352Z,2.57
2023-05-13T11:53:02.433Z,2.93
2023-05-13T11:55:30.070Z,2.70
2023-05-13T11:57:57.978Z,2.17
2023-05-13T12:00:35.324Z,2.60
2023-05-13T12:03:11.853Z,2.20
2023-05-13T12:05:39.891Z,2.40
2023-05-13T12:08:11.005Z,2.13
2023-05-13T12:10:43.818Z,3.40
2023-05-13T12:13:11.043Z,2.90
2023-05-13T12:15:38.234Z,2.37
2023-05-13T12:18:05.514Z,2.23
2023-05-13T12:20:33.656Z,2.50
2023-05-13T12:23:01.979Z,2.60
2023-05-13T12:25:50.947Z,2.20
2023-05-13T12:28:20.458Z,2.60
2023-05-13T12:31:01.733Z,2.20
2023-05-13T12:33:50.283Z,2.93
2023-05-13T12:36:33.554Z,2.43
2023-05-13T12:39:06.466Z,2.70
2023-05-13T12:41:35.431Z,2.47
2023-05-13T12:44:09.594Z,2.00
2023-05-13T12:46:37.297Z,2.40
2023-05-13T12:49:05.950Z,2.90
2023-05-13T12:51:33.979Z,2.40
2023-05-13T12:54:00.946Z,2.73
2023-05-13T12:56:27.896Z,2.50
2023-05-13T12:58:55.113Z,2.23
2023-05-13T13:01:22.498Z,2.23
2023-05-13T13:03:50.073Z,2.60
2023-05-13T13:06:17.732Z,2.70
2023-05-13T13:08:44.693Z,2.40
2023-05-13T13:11:14.897Z,3.23
2023-05-13T13:13:41.879Z,2.17
2023-05-13T13:16:09.397Z,2.00
2023-05-13T13:18:36.678Z,2.30
2023-05-13T13:21:05.294Z,1.90
2023-05-13T13:23:32.234Z,2.90
2023-05-13T13:25:59.333Z,2.20
2023-05-13T13:28:27.165Z,2.43
2023-05-13T13:30:54.611Z,2.63
2023-05-13T13:33:22.294Z,2.70
2023-05-13T13:35:49.804Z,2.53
2023-05-13T13:38:16.682Z,2.67
2023-05-13T13:40:43.582Z,2.83
2023-05-13T13:43:10.468Z,2.70
2023-05-13T13:45:37.379Z,2.23
2023-05-13T13:48:04.664Z,2.80
2023-05-13T13:50:31.779Z,2.63
2023-05-13T13:52:58.628Z,2.67
2023-05-13T13:55:26.551Z,2.50
2023-05-13T13:57:53.480Z,2.70
2023-05-13T14:00:20.804Z,2.60
2023-05-13T14:02:48.404Z,2.90
2023-05-13T14:05:16.067Z,2.60
2023-05-13T14:07:43.010Z,2.83
2023-05-13T14:10:10.440Z,2.57
2023-05-13T14:12:38.560Z,2.63
2023-05-13T14:15:06.545Z,2.67
2023-05-13T14:17:34.105Z,2.90
2023-05-13T14:20:01.347Z,3.70
2023-05-13T14:22:28.445Z,3.17
2023-05-13T14:24:55.369Z,2.63
2023-05-13T14:27:24.648Z,3.00
2023-05-13T14:29:51.869Z,2.80
2023-05-13T14:32:19.461Z,3.07
2023-05-13T14:34:46.410Z,2.33
2023-05-13T14:37:13.281Z,2.93
2023-05-13T14:39:40.210Z,2.60
2023-05-13T14:42:07.395Z,3.10
2023-05-13T14:44:34.419Z,3.33
2023-05-13T14:47:01.462Z,3.13
2023-05-13T14:49:28.561Z,3.40
2023-05-13T14:51:55.646Z,2.57
2023-05-13T14:54:22.539Z,2.90
2023-05-13T14:56:50.965Z,2.57
2023-05-13T14:59:18.225Z,2.67
2023-05-13T15:01:45.745Z,2.63
2023-05-13T15:04:12.777Z,3.00
2023-05-13T15:06:40.050Z,2.53
2023-05-13T15:09:06.972Z,2.10
2023-05-13T15:11:33.947Z,2.60
2023-05-13T15:14:02.203Z,2.53
2023-05-13T15:16:29.101Z,2.50
2023-05-13T15:18:56.150Z,2.70
2023-05-13T15:21:23.181Z,3.37
2023-05-13T15:23:50.093Z,2.80
2023-05-13T15:26:16.992Z,2.73
2023-05-13T15:28:43.853Z,2.80
2023-05-13T15:31:10.776Z,2.60
2023-05-13T15:33:37.724Z,2.77
2023-05-13T15:36:06.128Z,2.70
2023-05-13T15:38:33.051Z,3.20
2023-05-13T15:41:00.283Z,3.20
2023-05-13T15:43:27.569Z,2.77
2023-05-13T15:45:55.343Z,2.60
2023-05-13T15:48:22.458Z,2.90
2023-05-13T15:50:49.343Z,3.43
2023-05-13T15:53:16.203Z,3.10
2023-05-13T15:55:43.176Z,3.17
2023-05-13T15:58:10.052Z,2.87
2023-05-13T16:00:36.973Z,3.13
2023-05-13T16:03:04.021Z,4.37
2023-05-13T16:05:31.008Z,5.03
2023-05-13T16:07:58.027Z,4.60
2023-05-13T16:10:25.105Z,4.67
2023-05-13T16:12:52.260Z,4.70
2023-05-13T16:15:19.166Z,5.40
2023-05-13T16:17:46.127Z,4.30
2023-05-13T16:20:13.506Z,4.17
2023-05-13T16:22:40.752Z,4.50
2023-05-13T16:25:10.134Z,5.43
2023-05-13T16:27:38.816Z,4.20
2023-05-13T16:30:07.704Z,4.17
2023-05-13T16:32:35.142Z,3.73
2023-05-13T16:35:03.680Z,4.70
2023-05-13T16:37:35.041Z,3.70
2023-05-13T16:40:02.034Z,3.90
2023-05-13T16:42:28.908Z,4.30
2023-05-13T16:44:55.911Z,3.20
2023-05-13T16:47:22.914Z,3.67
2023-05-13T16:49:50.258Z,3.73
2023-05-13T16:52:17.541Z,3.60
2023-05-13T16:54:45.357Z,3.60
2023-05-13T16:57:12.276Z,3.40
2023-05-13T16:59:39.221Z,3.83
2023-05-13T17:02:07.340Z,3.93
2023-05-13T17:04:35.093Z,3.80
2023-05-13T17:07:02.682Z,4.33
2023-05-13T17:09:30.898Z,3.40
2023-05-13T17:11:57.961Z,3.53
2023-05-13T17:14:25.280Z,3.50
2023-05-13T17:16:52.409Z,3.47
2023-05-13T17:19:19.430Z,4.23
2023-05-13T17:21:47.160Z,3.70
2023-05-13T17:24:14.408Z,3.50
2023-05-13T17:26:41.578Z,3.67
2023-05-13T17:29:08.571Z,3.13
2023-05-13T17:31:35.563Z,4.70
2023-05-13T17:34:02.460Z,3.60
2023-05-13T17:36:29.408Z,4.00
2023-05-13T17:38:56.247Z,4.10
2023-05-13T17:41:23.107Z,3.63
2023-05-13T17:43:50.082Z,3.57
2023-05-13T17:46:17.070Z,3.80
2023-05-13T17:48:44.489Z,3.40
2023-05-13T17:51:12.219Z,3.43
2023-05-13T17:53:39.104Z,3.20
2023-05-13T17:56:08.318Z,3.43
2023-05-13T17:58:35.338Z,3.27
2023-05-13T18:01:02.514Z,2.93
2023-05-13T18:03:29.456Z,3.80
2023-05-13T18:05:56.454Z,3.57
2023-05-13T18:08:23.411Z,4.60
2023-05-13T18:10:50.450Z,3.47
2023-05-13T18:13:17.316Z,4.00
2023-05-13T18:15:44.673Z,3.73
2023-05-13T18:18:11.667Z,4.10
2023-05-13T18:20:40.184Z,4.57
2023-05-13T18:23:07.143Z,4.37
2023-05-13T18:25:37.969Z,4.20
2023-05-13T18:28:12.373Z,3.90
2023-05-13T18:30:39.294Z,4.47
2023-05-13T18:33:06.535Z,4.27
2023-05-13T18:35:33.518Z,4.40
2023-05-13T18:38:00.519Z,3.90
2023-05-13T18:40:27.492Z,4.37
2023-05-13T18:42:54.320Z,4.60
2023-05-13T18:45:21.457Z,5.10
2023-05-13T18:47:48.387Z,5.20
2023-05-13T18:50:16.117Z,5.93
2023-05-13T18:52:44.104Z,4.03
2023-05-13T18:55:10.990Z,4.40
2023-05-13T18:57:38.005Z,4.23
2023-05-13T19:00:05.956Z,5.03
2023-05-13T19:02:33.322Z,4.73
2023-05-13T19:05:00.459Z,4.40
2023-05-13T19:07:27.511Z,5.27
2023-05-13T19:09:54.393Z,5.53
2023-05-13T19:12:21.283Z,5.97
2023-05-13T19:14:48.152Z,5.00
2023-05-13T19:17:15.162Z,5.73
2023-05-13T19:19:43.304Z,5.73
2023-05-13T19:22:10.259Z,5.63
2023-05-13T19:24:37.157Z,5.57
2023-05-13T19:27:04.565Z,5.10
2023-05-13T19:29:31.483Z,6.00
2023-05-13T19:31:58.347Z,5.50
2023-05-13T19:34:25.793Z,5.13
2023-05-13T19:36:53.284Z,5.03
2023-05-13T19:39:24.117Z,4.63
2023-05-13T19:41:51.474Z,4.33
2023-05-13T19:44:26.232Z,4.60
2023-05-13T19:47:00.145Z,5.03
2023-05-13T19:49:27.921Z,5.03
2023-05-13T19:51:56.024Z,5.30
2023-05-13T19:54:23.507Z,7.07
2023-05-13T19:56:51.065Z,5.33
2023-05-13T19:59:18.754Z,5.27
2023-05-13T20:01:46.322Z,4.77
2023-05-13T20:04:24.989Z,5.10
2023-05-13T20:06:53.148Z,6.00
2023-05-13T20:09:21.139Z,5.57
2023-05-13T20:11:52.797Z,6.53
2023-05-13T20:14:27.925Z,6.43
2023-05-13T20:16:55.576Z,6.73
2023-05-13T20:19:23.411Z,6.90
2023-05-13T20:21:50.538Z,11.70
2023-05-13T20:24:23.412Z,11.70
2023-05-13T20:26:51.392Z,8.50
2023-05-13T20:29:26.443Z,8.00
2023-05-13T20:31:57.489Z,9.90
2023-05-13T20:34:28.801Z,8.80
2023-05-13T20:36:59.553Z,8.97
2023-05-13T20:39:36.220Z,7.73
2023-05-13T20:42:15.657Z,8.27
2023-05-13T20:44:48.966Z,8.33
2023-05-13T20:47:32.484Z,9.03
2023-05-13T20:50:06.262Z,10.07
2023-05-13T20:52:40.515Z,9.67
2023-05-13T20:55:15.832Z,10.20
2023-05-13T20:57:51.148Z,9.80
2023-05-13T21:00:33.300Z,9.10
2023-05-13T21:03:01.699Z,10.00
2023-05-13T21:05:32.207Z,11.20
2023-05-13T21:08:08.228Z,10.50
2023-05-13T21:10:50.882Z,10.20
2023-05-13T21:13:35.426Z,12.67
2023-05-13T21:16:09.613Z,10.80
2023-05-13T21:18:40.519Z,11.73
2023-05-13T21:21:22.106Z,11.20
2023-05-13T21:23:56.077Z,11.43
2023-05-13T21:26:25.199Z,11.17
2023-05-13T21:28:55.591Z,11.60
2023-05-13T21:31:26.360Z,10.57
2023-05-13T21:33:53.908Z,10.27
2023-05-13T21:36:25.031Z,11.73
2023-05-13T21:38:56.074Z,10.10
2023-05-13T21:41:24.050Z,9.90
2023-05-13T21:43:50.925Z,9.93
2023-05-13T21:46:17.860Z,10.67
2023-05-13T21:48:46.849Z,10.43
2023-05-13T21:51:14.095Z,10.50
2023-05-13T21:53:40.960Z,10.20
2023-05-13T21:56:07.878Z,9.30
2023-05-13T21:58:34.806Z,9.87
2023-05-13T22:01:01.783Z,10.73
2023-05-13T22:03:28.778Z,9.90
2023-05-13T22:05:55.807Z,9.93
2023-05-13T22:08:22.682Z,9.23
2023-05-13T22:10:49.604Z,7.50
2023-05-13T22:13:16.955Z,8.33
2023-05-13T22:15:44.025Z,8.57
2023-05-13T22:18:11.122Z,8.60
2023-05-13T22:20:38.092Z,8.10
2023-05-13T22:23:05.040Z,7.83
2023-05-13T22:25:31.987Z,8.50
2023-05-13T22:27:59.134Z,8.50
2023-05-13T22:30:26.217Z,7.40
2023-05-13T22:32:53.338Z,7.87
2023-05-13T22:35:20.309Z,8.50
2023-05-13T22:37:47.225Z,7.90
2023-05-13T22:40:14.259Z,8.00
2023-05-13T22:42:41.161Z,8.77
2023-05-13T22:45:08.876Z,8.60
2023-05-13T22:47:37.073Z,7.63
2023-05-13T22:50:04.947Z,7.40
2023-05-13T22:52:31.845Z,8.63
2023-05-13T22:54:58.723Z,8.90
2023-05-13T22:57:27.172Z,8.90
2023-05-13T22:59:54.024Z,7.30
2023-05-13T23:02:20.970Z,8.03
2023-05-13T23:04:47.862Z,7.40
2023-05-13T23:07:14.933Z,7.40
2023-05-13T23:09:42.014Z,8.00
2023-05-13T23:12:09.079Z,7.60
2023-05-13T23:14:36.172Z,7.53
2023-05-13T23:17:03.265Z,8.83
2023-05-13T23:19:30.791Z,8.80
2023-05-13T23:21:58.022Z,8.60
2023-05-13T23:24:25.103Z,8.33
2023-05-13T23:26:52.092Z,8.53
2023-05-13T23:29:19.171Z,8.10
2023-05-13T23:31:46.294Z,9.60
2023-05-13T23:34:14.968Z,8.93
2023-05-13T23:36:42.014Z,9.47
2023-05-13T23:39:09.708Z,8.60
2023-05-13T23:41:36.916Z,8.83
2023-05-13T23:44:04.247Z,9.93
2023-05-13T23:46:32.041Z,9.90
2023-05-13T23:48:58.929Z,10.17
2023-05-13T23:51:25.789Z,11.07
2023-05-13T23:53:54.329Z,11.50
2023-05-13T23:56:22.131Z,10.77
2023-05-13T23:58:48.987Z,11.40
